Time;durP1;ratioP1;P1;durP2;ratioP2;P2;SDS_P1;SDS_P2;PMS_P1;PMS_P2;Temp;Humidity;BMP_temperature;BMP_pressure;BME280_temperature;BME280_humidity;BME280_pressure;Samples;Min_cycle;Max_cycle;Signal;HPM_P1;HPM_P2
2021/03/18 00:00:28;;;;;;;12.70;11.47;;;;;;;0.99;88.45;101471.09;5057660;28;20716;-76
2021/03/18 00:02:53;;;;;;;12.73;11.53;;;;;;;0.91;88.58;101465.72;5055501;28;20205;-75
2021/03/18 00:05:19;;;;;;;13.47;12.27;;;;;;;0.96;88.43;101453.88;5058260;28;20819;-74
2021/03/18 00:07:45;;;;;;;12.43;11.33;;;;;;;0.95;88.63;101456.38;5054337;28;20225;-75
2021/03/18 00:10:12;;;;;;;13.00;11.57;;;;;;;0.93;88.41;101458.94;5072648;28;20209;-76
2021/03/18 00:12:37;;;;;;;12.90;11.80;;;;;;;0.84;88.33;101455.13;5063430;28;20264;-77
2021/03/18 00:15:07;;;;;;;13.50;12.30;;;;;;;0.77;88.18;101465.19;5060289;28;20613;-77
2021/03/18 00:17:34;;;;;;;14.37;13.10;;;;;;;0.81;88.57;101455.00;5052720;28;20291;-76
2021/03/18 00:19:59;;;;;;;12.63;11.53;;;;;;;0.76;88.39;101465.13;5055725;28;20222;-76
2021/03/18 00:22:25;;;;;;;13.23;12.13;;;;;;;0.73;88.57;101458.19;5064429;28;20197;-76
2021/03/18 00:24:51;;;;;;;13.87;12.57;;;;;;;0.72;88.62;101460.69;5060783;28;20693;-76
2021/03/18 00:27:17;;;;;;;14.67;13.37;;;;;;;0.78;88.55;101461.78;5052535;28;20626;-76
2021/03/18 00:29:43;;;;;;;16.47;13.60;;;;;;;0.69;89.11;101458.84;5060352;28;20204;-77
2021/03/18 00:32:09;;;;;;;15.97;14.57;;;;;;;0.72;89.67;101458.13;5052524;28;20570;-76
2021/03/18 00:34:36;;;;;;;16.23;14.73;;;;;;;0.76;89.62;101457.41;5060748;28;20213;-77
2021/03/18 00:37:02;;;;;;;17.10;14.80;;;;;;;0.75;90.00;101464.25;5052549;28;20218;-76
2021/03/18 00:39:28;;;;;;;16.53;15.07;;;;;;;0.85;89.52;101460.31;5067492;28;20209;-76
2021/03/18 00:41:54;;;;;;;16.87;15.27;;;;;;;0.88;89.68;101457.88;5068208;28;20262;-76
2021/03/18 00:44:20;;;;;;;16.37;14.93;;;;;;;0.83;88.71;101455.94;5060150;28;20217;-76
2021/03/18 00:46:46;;;;;;;17.40;15.90;;;;;;;0.72;89.28;101451.28;5051901;28;20237;-76
2021/03/18 00:49:12;;;;;;;16.23;14.83;;;;;;;0.76;89.59;101454.84;5060236;28;20216;-76
2021/03/18 00:51:39;;;;;;;17.33;15.60;;;;;;;0.75;89.60;101453.97;5052109;28;20716;-76
2021/03/18 00:54:05;;;;;;;15.90;14.50;;;;;;;0.81;89.53;101455.88;5060127;28;20574;-76
2021/03/18 00:56:31;;;;;;;16.43;14.80;;;;;;;0.77;89.35;101464.28;5051645;28;20203;-76
2021/03/18 00:58:57;;;;;;;18.27;16.57;;;;;;;0.75;89.90;101453.06;5060114;28;20280;-76
2021/03/18 01:01:25;;;;;;;18.63;16.83;;;;;;;0.71;90.13;101464.06;5051688;28;20230;-76
2021/03/18 01:03:51;;;;;;;17.27;15.77;;;;;;;0.73;89.68;101462.44;5060486;28;20216;-76
2021/03/18 01:06:21;;;;;;;17.43;15.83;;;;;;;0.77;90.18;101465.19;5051933;28;20206;-76
2021/03/18 01:08:47;;;;;;;17.10;15.37;;;;;;;0.71;89.88;101464.94;5062050;28;20201;-77
2021/03/18 01:11:16;;;;;;;18.03;16.00;;;;;;;0.66;89.83;101461.34;5071356;28;20698;-76
2021/03/18 01:13:44;;;;;;;17.73;16.17;;;;;;;0.76;89.68;101473.69;5061218;28;20270;-77
2021/03/18 01:16:14;;;;;;;17.83;16.13;;;;;;;0.76;89.40;101468.56;5054754;28;20202;-77
2021/03/18 01:18:42;;;;;;;17.17;15.50;;;;;;;0.74;89.23;101470.19;5051068;28;20283;-76
2021/03/18 01:21:09;;;;;;;17.37;15.80;;;;;;;0.69;89.07;101464.00;5064575;28;20200;-76
2021/03/18 01:23:36;;;;;;;18.33;16.73;;;;;;;0.69;89.07;101463.13;5062226;28;20205;-76
2021/03/18 01:26:03;;;;;;;16.77;15.20;;;;;;;0.66;89.04;101461.34;5051800;28;20266;-76
2021/03/18 01:28:30;;;;;;;17.57;16.07;;;;;;;0.62;89.07;101461.16;5059336;28;20217;-77
2021/03/18 01:30:56;;;;;;;20.30;18.17;;;;;;;0.61;89.98;101459.41;5051624;28;20210;-76
2021/03/18 01:33:22;;;;;;;18.53;16.63;;;;;;;0.60;90.11;101458.53;5058402;28;20201;-76
2021/03/18 01:35:48;;;;;;;19.80;17.87;;;;;;;0.59;90.06;101454.19;5053175;28;20280;-76
2021/03/18 01:38:14;;;;;;;18.07;16.17;;;;;;;0.61;89.97;101456.84;5056490;28;20221;-76
2021/03/18 01:40:40;;;;;;;18.37;16.47;;;;;;;0.64;89.73;101455.25;5071410;28;20278;-76
2021/03/18 01:43:08;;;;;;;16.70;15.10;;;;;;;0.66;89.92;101447.63;5061722;28;20197;-76
2021/03/18 01:45:34;;;;;;;16.63;15.03;;;;;;;0.64;89.23;101450.13;5054646;28;20672;-77
2021/03/18 01:48:01;;;;;;;17.30;15.70;;;;;;;0.62;89.31;101448.31;5054221;28;20730;-76
2021/03/18 01:50:29;;;;;;;17.30;15.77;;;;;;;0.55;89.46;101447.19;5056006;28;20201;-77
2021/03/18 01:52:56;;;;;;;17.50;15.77;;;;;;;0.56;89.85;101444.69;5054028;28;20205;-77
2021/03/18 01:55:26;;;;;;;17.90;16.03;;;;;;;0.53;89.89;101444.56;5056391;28;20205;-76
2021/03/18 01:57:52;;;;;;;18.73;17.10;;;;;;;0.46;90.12;101449.44;5053807;28;20221;-77
2021/03/18 02:00:20;;;;;;;19.37;17.40;;;;;;;0.39;90.31;101445.72;5056840;28;20252;-76
2021/03/18 02:02:46;;;;;;;19.23;17.37;;;;;;;0.31;90.23;101437.72;5052796;28;20680;-76
2021/03/18 02:05:13;;;;;;;18.63;16.93;;;;;;;0.31;90.50;101445.44;5057920;28;20209;-76
2021/03/18 02:07:39;;;;;;;19.30;16.43;;;;;;;0.27;90.83;101429.84;5051933;28;20229;-76
2021/03/18 02:10:07;;;;;;;18.23;16.50;;;;;;;0.32;90.27;101425.78;5070930;28;20569;-77
2021/03/18 02:12:33;;;;;;;18.07;16.03;;;;;;;0.31;89.97;101439.44;5065318;28;20218;-77
2021/03/18 02:14:59;;;;;;;18.27;16.47;;;;;;;0.30;90.21;101433.41;5063242;28;20577;-76
2021/03/18 02:17:37;;;;;;;17.00;15.40;;;;;;;0.30;90.02;101435.13;5055097;28;20737;-77
2021/03/18 02:20:37;;;;;;;19.37;17.40;;;;;;;0.26;90.39;101433.22;5059018;28;20206;-76
2021/03/18 02:23:45;;;;;;;18.57;16.63;;;;;;;0.25;90.44;101434.06;5065977;28;20223;-76
2021/03/18 02:26:29;;;;;;;19.30;17.37;;;;;;;0.21;90.64;101432.19;4954555;29;20193;-76
2021/03/18 02:29:15;;;;;;;19.33;17.43;;;;;;;0.23;90.79;101423.72;4965389;28;20323;-76
2021/03/18 02:31:52;;;;;;;17.97;16.07;;;;;;;0.19;90.41;101422.72;5022416;28;20206;-76
2021/03/18 02:34:45;;;;;;;19.03;17.13;;;;;;;0.20;91.30;101423.63;5062622;28;20204;-76
2021/03/18 02:37:13;;;;;;;20.00;18.00;;;;;;;0.17;91.03;101421.78;5054749;28;20235;-76
2021/03/18 02:39:43;;;;;;;21.13;19.13;;;;;;;0.18;91.12;101420.13;5071468;28;20311;-76
2021/03/18 02:42:16;;;;;;;19.80;17.70;;;;;;;0.15;91.22;101415.72;5068984;28;20206;-76
2021/03/18 02:44:44;;;;;;;19.90;18.07;;;;;;;0.22;91.20;101404.00;5062729;28;20197;-76
2021/03/18 02:47:12;;;;;;;18.30;16.50;;;;;;;0.19;90.77;101397.03;5054036;28;20237;-77
2021/03/18 02:49:41;;;;;;;21.17;17.60;;;;;;;0.21;91.08;101399.69;5061944;28;20205;-76
2021/03/18 02:52:09;;;;;;;24.03;18.33;;;;;;;0.24;91.07;101398.91;5053997;28;20207;-76
2021/03/18 02:54:37;;;;;;;18.47;16.43;;;;;;;0.25;90.60;101396.41;5062644;28;20201;-76
2021/03/18 02:57:07;;;;;;;19.67;16.43;;;;;;;0.30;90.25;101394.03;5053661;28;20218;-76
2021/03/18 02:59:35;;;;;;;16.73;15.33;;;;;;;0.37;90.00;101380.59;5062335;28;20226;-77
2021/03/18 03:02:04;;;;;;;18.30;16.37;;;;;;;0.42;89.61;101381.66;5038575;28;20213;-77
2021/03/18 03:04:31;;;;;;;17.57;14.93;;;;;;;0.42;88.98;101375.63;5062102;28;20201;-76
2021/03/18 03:06:58;;;;;;;16.33;14.87;;;;;;;0.28;88.90;101373.44;5063517;28;20233;-77
2021/03/18 03:09:25;;;;;;;16.80;15.30;;;;;;;0.21;89.23;101375.69;5053645;28;20247;-77
2021/03/18 03:11:55;;;;;;;17.27;15.80;;;;;;;0.16;89.08;101378.09;5068503;28;20215;-77
2021/03/18 03:14:21;;;;;;;17.37;15.77;;;;;;;0.05;89.44;101375.09;5062476;28;20202;-77
2021/03/18 03:16:47;;;;;;;15.93;14.40;;;;;;;0.05;89.67;101380.25;5069113;28;21676;-77
2021/03/18 03:19:13;;;;;;;16.83;15.23;;;;;;;-0.01;89.18;101383.44;5061478;28;20244;-77
2021/03/18 03:21:40;;;;;;;17.37;15.83;;;;;;;-0.07;89.12;101377.19;5068578;28;20201;-77
2021/03/18 03:24:08;;;;;;;19.20;17.40;;;;;;;-0.17;89.69;101378.53;5061241;28;20665;-77
2021/03/18 03:26:34;;;;;;;20.00;18.00;;;;;;;-0.18;90.46;101383.59;5068258;28;20224;-78
2021/03/18 03:29:03;;;;;;;23.87;19.57;;;;;;;-0.12;90.96;101386.38;5061251;28;20252;-78
2021/03/18 03:31:29;;;;;;;20.43;18.40;;;;;;;-0.15;90.78;101386.28;5068610;28;20204;-77
2021/03/18 03:33:55;;;;;;;19.00;17.23;;;;;;;-0.18;90.71;101387.00;5061654;28;20206;-78
2021/03/18 03:36:21;;;;;;;19.20;17.30;;;;;;;-0.22;90.25;101380.91;5063328;28;20214;-78
2021/03/18 03:38:47;;;;;;;19.33;17.43;;;;;;;-0.26;90.51;101376.47;5052934;28;20277;-78
2021/03/18 03:41:14;;;;;;;19.87;17.33;;;;;;;-0.23;90.62;101379.16;5066925;28;20226;-78
2021/03/18 03:43:40;;;;;;;19.87;17.87;;;;;;;-0.21;90.59;101376.66;5062920;28;20209;-78
2021/03/18 03:46:07;;;;;;;22.07;18.63;;;;;;;-0.23;90.75;101381.72;5066168;28;20568;-78
2021/03/18 03:48:34;;;;;;;22.03;19.80;;;;;;;-0.16;91.07;101375.13;5063067;28;20282;-78
2021/03/18 03:51:02;;;;;;;21.57;19.23;;;;;;;-0.13;91.19;101382.09;5057167;28;20213;-77
2021/03/18 03:53:37;;;;;;;22.10;19.50;;;;;;;-0.12;91.36;101381.25;5063902;28;20256;-78
2021/03/18 03:56:05;;;;;;;22.17;19.97;;;;;;;-0.05;91.34;101376.44;5057869;28;20205;-78
2021/03/18 03:58:37;;;;;;;21.33;18.97;;;;;;;-0.07;90.95;101378.06;5062694;28;20716;-78
2021/03/18 04:01:06;;;;;;;23.90;19.77;;;;;;;-0.09;91.15;101376.25;5057943;28;20196;-78
2021/03/18 04:03:35;;;;;;;21.37;19.17;;;;;;;-0.13;91.19;101371.81;5063317;28;20205;-78
2021/03/18 04:06:02;;;;;;;22.23;19.83;;;;;;;-0.22;90.80;101373.22;5055264;28;20201;-78
2021/03/18 04:08:30;;;;;;;22.80;20.37;;;;;;;-0.24;91.15;101372.28;5052665;28;20229;-78
2021/03/18 04:10:58;;;;;;;22.87;20.33;;;;;;;-0.28;91.06;101375.53;5064295;28;20200;-78
2021/03/18 04:13:26;;;;;;;22.23;19.57;;;;;;;-0.32;91.11;101365.94;5063979;28;20721;-78
2021/03/18 04:15:53;;;;;;;26.57;20.90;;;;;;;-0.33;91.27;101364.22;5055949;28;20670;-78
2021/03/18 04:18:20;;;;;;;25.20;21.83;;;;;;;-0.30;91.42;101359.19;5050403;28;20228;-77
2021/03/18 04:20:48;;;;;;;20.90;18.80;;;;;;;-0.29;91.35;101360.06;5053569;28;20233;-77
2021/03/18 04:23:15;;;;;;;21.37;19.23;;;;;;;-0.25;91.47;101355.13;5058158;28;20205;-78
2021/03/18 04:25:42;;;;;;;25.43;19.20;;;;;;;-0.33;91.00;101348.81;5065105;28;20690;-77
2021/03/18 04:28:09;;;;;;;26.47;20.43;;;;;;;-0.39;91.14;101352.84;5062850;28;20228;-77
2021/03/18 04:30:37;;;;;;;25.90;20.17;;;;;;;-0.37;91.29;101356.34;5064090;28;20196;-77
2021/03/18 04:33:03;;;;;;;22.97;20.07;;;;;;;-0.32;91.69;101355.69;5062422;28;20205;-77
2021/03/18 04:35:30;;;;;;;23.50;18.57;;;;;;;-0.35;91.22;101349.56;5064248;28;20204;-77
2021/03/18 04:37:59;;;;;;;25.10;21.67;;;;;;;-0.30;91.48;101364.31;5054231;28;20221;-77
2021/03/18 04:40:25;;;;;;;24.60;20.73;;;;;;;-0.32;91.42;101362.50;5059373;28;20227;-77
2021/03/18 04:42:52;;;;;;;21.87;18.97;;;;;;;-0.40;91.03;101362.19;5063211;28;20232;-77
2021/03/18 04:45:20;;;;;;;26.80;21.10;;;;;;;-0.43;91.24;101365.53;5064518;28;20196;-77
2021/03/18 04:47:48;;;;;;;22.97;20.53;;;;;;;-0.43;91.20;101356.97;5062728;28;20237;-77
2021/03/18 04:50:19;;;;;;;30.30;22.30;;;;;;;-0.39;91.34;101353.69;5064693;28;20197;-78
2021/03/18 04:52:45;;;;;;;21.27;19.07;;;;;;;-0.37;91.27;101358.91;5063307;28;20202;-77
2021/03/18 04:55:14;;;;;;;27.23;22.10;;;;;;;-0.29;91.48;101360.94;5064496;28;20578;-77
2021/03/18 04:57:43;;;;;;;22.87;18.63;;;;;;;-0.34;91.35;101356.44;5062511;28;20745;-77
2021/03/18 05:00:10;;;;;;;23.63;19.97;;;;;;;-0.36;91.06;101353.81;5063476;28;20745;-77
2021/03/18 05:02:38;;;;;;;27.57;21.17;;;;;;;-0.37;91.03;101352.06;5062499;28;20205;-77
2021/03/18 05:05:06;;;;;;;24.77;19.57;;;;;;;-0.44;91.31;101358.66;5063922;28;20193;-77
2021/03/18 05:07:32;;;;;;;25.97;21.67;;;;;;;-0.43;91.41;101350.13;5056652;28;20994;-77
2021/03/18 05:09:58;;;;;;;27.97;22.20;;;;;;;-0.50;91.33;101347.25;5055118;28;20779;-77
2021/03/18 05:12:25;;;;;;;28.20;22.30;;;;;;;-0.57;91.29;101341.00;5064428;28;20208;-77
2021/03/18 05:14:52;;;;;;;30.00;21.27;;;;;;;-0.54;91.46;101341.13;5062840;28;20209;-77
2021/03/18 05:17:18;;;;;;;23.57;20.70;;;;;;;-0.60;91.22;101344.31;5064573;28;20228;-77
2021/03/18 05:19:45;;;;;;;26.17;20.50;;;;;;;-0.70;91.25;101337.06;5061217;28;20283;-77
2021/03/18 05:22:11;;;;;;;25.27;20.93;;;;;;;-0.73;91.58;101341.16;5066480;28;20213;-77
2021/03/18 05:24:40;;;;;;;28.17;21.73;;;;;;;-0.76;91.50;101343.63;5060817;28;20205;-77
2021/03/18 05:27:07;;;;;;;28.80;22.77;;;;;;;-0.76;92.27;101343.63;5067178;28;20629;-77
2021/03/18 05:29:34;;;;;;;31.83;23.53;;;;;;;-0.74;91.76;101339.44;5060633;28;20206;-77
2021/03/18 05:32:00;;;;;;;27.80;22.53;;;;;;;-0.71;91.72;101344.69;5037014;28;20209;-77
2021/03/18 05:34:26;;;;;;;30.47;22.57;;;;;;;-0.74;91.66;101337.75;5060144;28;20280;-78
2021/03/18 05:36:52;;;;;;;26.13;21.20;;;;;;;-0.74;91.73;101342.00;5061710;28;20225;-78
2021/03/18 05:39:18;;;;;;;29.43;23.23;;;;;;;-0.70;91.86;101343.88;5052381;28;20230;-77
2021/03/18 05:41:44;;;;;;;30.70;22.60;;;;;;;-0.74;91.74;101342.00;5067721;28;20733;-78
2021/03/18 05:44:10;;;;;;;28.70;22.03;;;;;;;-0.81;91.72;101349.44;5060421;28;20595;-78
2021/03/18 05:46:40;;;;;;;23.50;21.00;;;;;;;-0.84;91.99;101341.59;5069238;28;20220;-77
2021/03/18 05:49:08;;;;;;;29.43;22.87;;;;;;;-0.85;92.13;101347.56;5063047;22;20233;-76
2021/03/18 05:51:34;;;;;;;25.17;21.23;;;;;;;-0.86;91.55;101345.78;5047991;28;20213;-75
2021/03/18 05:54:02;;;;;;;30.20;22.83;;;;;;;-0.95;91.80;101342.88;5048285;28;20213;-75
2021/03/18 05:56:28;;;;;;;30.47;22.93;;;;;;;-0.90;91.59;101343.91;5049930;28;20219;-75
2021/03/18 05:58:55;;;;;;;25.57;21.23;;;;;;;-0.97;91.73;101344.47;5044904;28;20242;-75
2021/03/18 06:01:21;;;;;;;27.10;22.30;;;;;;;-0.99;92.01;101348.66;5046084;28;20198;-75
2021/03/18 06:03:48;;;;;;;26.20;22.43;;;;;;;-1.06;92.61;101349.19;5049603;28;20866;-78
2021/03/18 06:06:15;;;;;;;31.50;24.43;;;;;;;-1.15;92.66;101351.34;5049256;28;20197;-77
2021/03/18 06:08:41;;;;;;;35.80;26.17;;;;;;;-1.18;92.96;101349.56;5053616;28;20233;-77
2021/03/18 06:11:10;;;;;;;35.67;25.80;;;;;;;-1.22;93.16;101347.66;5053492;28;20677;-77
2021/03/18 06:13:37;;;;;;;37.83;25.50;;;;;;;-1.23;92.91;101351.03;5044174;28;20252;-78
2021/03/18 06:16:05;;;;;;;34.60;24.47;;;;;;;-1.31;93.36;101347.25;5063963;28;20587;-77
2021/03/18 06:18:32;;;;;;;36.17;25.70;;;;;;;-1.41;93.35;101341.75;5043037;28;20226;-76
2021/03/18 06:20:59;;;;;;;50.83;26.87;;;;;;;-1.42;93.75;101347.66;5054551;28;20232;-77
2021/03/18 06:23:27;;;;;;;134.10;28.80;;;;;;;-1.40;93.64;101350.31;5062072;28;20553;-76
2021/03/18 06:25:53;;;;;;;173.73;33.00;;;;;;;-1.41;94.47;101345.97;5064547;28;20209;-77
2021/03/18 06:28:22;;;;;;;103.00;31.53;;;;;;;-1.38;94.45;101342.69;5042948;28;20214;-76
2021/03/18 06:31:03;;;;;;;161.77;36.23;;;;;;;-1.36;95.02;101339.38;5058975;28;20197;-77
2021/03/18 06:33:31;;;;;;;241.07;38.47;;;;;;;-1.37;95.30;101340.16;5044210;28;20216;-77
2021/03/18 06:35:58;;;;;;;205.47;38.33;;;;;;;-1.29;95.35;101336.28;5061440;28;20196;-77
2021/03/18 06:38:30;;;;;;;148.03;36.97;;;;;;;-1.23;95.64;101331.44;5047902;28;20229;-77
2021/03/18 06:40:57;;;;;;;180.93;38.23;;;;;;;-1.15;95.62;101331.75;5054487;28;20227;-77
2021/03/18 06:43:39;;;;;;;182.20;37.80;;;;;;;-1.20;95.83;101325.56;5041258;28;20202;-76
2021/03/18 06:46:20;;;;;;;124.60;34.67;;;;;;;-1.25;95.78;101335.63;5047563;28;20198;-78
2021/03/18 06:48:47;;;;;;;198.73;38.87;;;;;;;-1.13;95.99;101335.25;5048454;28;20232;-77
2021/03/18 06:51:22;;;;;;;303.43;41.37;;;;;;;-1.24;95.98;101331.34;5044909;28;20194;-76
2021/03/18 06:53:49;;;;;;;109.47;37.73;;;;;;;-1.11;96.19;101338.78;5051685;28;20235;-77
2021/03/18 06:56:23;;;;;;;148.27;34.17;;;;;;;-1.11;96.00;101335.31;5062485;28;20191;-78
2021/03/18 06:58:50;;;;;;;122.20;34.63;;;;;;;-1.08;96.24;101328.63;5046165;28;20221;-78
2021/03/18 07:01:25;;;;;;;296.03;37.70;;;;;;;-1.14;96.12;101335.19;5051516;28;20206;-78
2021/03/18 07:03:51;;;;;;;252.90;42.87;;;;;;;-1.12;96.19;101323.31;5050745;28;20259;-76
2021/03/18 07:06:28;;;;;;;127.93;40.43;;;;;;;-1.03;96.32;101319.47;5050920;28;20209;-76
2021/03/18 07:09:04;;;;;;;144.77;40.00;;;;;;;-0.90;96.36;101318.28;5044686;28;20228;-77
2021/03/18 07:11:37;;;;;;;159.97;41.10;;;;;;;-0.79;96.35;101326.44;5050817;28;20210;-77
2021/03/18 07:14:03;;;;;;;213.67;40.87;;;;;;;-0.71;96.35;101319.06;5046884;28;20205;-77
2021/03/18 07:16:39;;;;;;;104.63;38.37;;;;;;;-0.63;96.36;101317.69;5048149;28;20584;-77
2021/03/18 07:19:05;;;;;;;100.30;36.40;;;;;;;-0.57;96.40;101320.50;5048391;28;20692;-76
2021/03/18 07:21:36;;;;;;;91.70;36.33;;;;;;;-0.46;96.34;101321.78;5047658;28;20296;-76
2021/03/18 07:24:03;;;;;;;89.80;35.67;;;;;;;-0.42;95.88;101326.25;5049956;28;20581;-76
2021/03/18 07:26:37;;;;;;;79.60;35.13;;;;;;;-0.20;95.63;101332.19;5047506;28;20237;-77
2021/03/18 07:29:13;;;;;;;66.90;31.87;;;;;;;-0.25;95.66;101326.91;5046923;28;20270;-76
2021/03/18 07:31:40;;;;;;;69.13;32.10;;;;;;;-0.33;95.44;101325.72;5046659;28;20639;-76
2021/03/18 07:34:07;;;;;;;65.40;32.23;;;;;;;-0.21;95.42;101320.22;5048820;28;20228;-77
2021/03/18 07:36:33;;;;;;;77.80;30.97;;;;;;;-0.32;95.17;101319.75;5049675;28;20213;-77
2021/03/18 07:38:59;;;;;;;94.73;32.27;;;;;;;-0.30;94.98;101309.56;5046467;28;20580;-76
2021/03/18 07:41:27;;;;;;;76.30;30.60;;;;;;;-0.23;94.90;101314.13;5045855;28;20675;-76
2021/03/18 07:43:53;;;;;;;67.73;31.53;;;;;;;-0.06;94.87;101322.47;5050867;28;20278;-76
2021/03/18 07:46:21;;;;;;;54.20;28.00;;;;;;;0.13;94.81;101317.22;5050770;28;20206;-76
2021/03/18 07:48:49;;;;;;;66.23;27.30;;;;;;;-0.01;94.35;101313.28;5046010;28;20227;-76
2021/03/18 07:51:17;;;;;;;61.70;27.33;;;;;;;0.01;93.67;101309.06;5048433;28;20198;-76
2021/03/18 07:53:45;;;;;;;46.27;26.80;;;;;;;0.18;93.64;101309.72;5047115;28;20232;-77
2021/03/18 07:56:15;;;;;;;55.67;28.17;;;;;;;0.09;93.82;101315.38;5043238;28;20351;-76
2021/03/18 07:58:42;;;;;;;124.47;30.67;;;;;;;-0.07;93.82;101320.75;5048226;28;20223;-75
2021/03/18 08:01:37;;;;;;;70.70;31.63;;;;;;;0.08;94.09;101317.88;5051807;28;20217;-77
2021/03/18 08:04:04;;;;;;;83.13;30.57;;;;;;;0.05;94.17;101312.63;5044562;28;20686;-75
2021/03/18 08:06:52;;;;;;;61.10;29.47;;;;;;;0.15;93.93;101310.47;5048767;28;20205;-77
2021/03/18 08:09:50;;;;;;;51.80;28.40;;;;;;;0.11;93.68;101315.44;5041591;28;20223;-75
2021/03/18 08:12:36;;;;;;;65.60;27.23;;;;;;;0.27;93.44;101311.75;5046906;28;20201;-77
2021/03/18 08:15:24;;;;;;;58.83;27.07;;;;;;;0.15;93.10;101315.59;5049708;28;20232;-78
2021/03/18 08:17:51;;;;;;;46.83;26.33;;;;;;;0.27;92.94;101325.44;5046356;28;20218;-77
2021/03/18 08:20:56;;;;;;;38.80;25.33;;;;;;;0.27;93.03;101322.00;5050180;28;20224;-78
2021/03/18 08:23:38;;;;;;;50.07;27.30;;;;;;;0.15;92.93;101323.28;5042386;28;20205;-77
2021/03/18 08:26:05;;;;;;;64.87;29.23;;;;;;;-0.14;93.57;101327.34;5047353;28;20194;-77
2021/03/18 08:28:35;;;;;;;48.03;27.70;;;;;;;-0.13;93.92;101326.50;5042537;28;20238;-77
2021/03/18 08:31:03;;;;;;;54.27;26.43;;;;;;;-0.18;94.20;101325.44;5050426;28;20193;-77
2021/03/18 08:33:32;;;;;;;53.07;28.73;;;;;;;-0.14;94.27;101332.47;5041401;28;20210;-77
2021/03/18 08:36:19;;;;;;;57.37;28.20;;;;;;;-0.19;94.65;101335.66;5052606;28;20248;-75
2021/03/18 08:38:45;;;;;;;61.87;30.30;;;;;;;-0.12;94.88;101333.41;5039248;28;20223;-75
2021/03/18 08:41:27;;;;;;;54.57;30.10;;;;;;;-0.04;94.52;101329.44;5049688;28;20221;-75
2021/03/18 08:44:16;;;;;;;59.00;30.43;;;;;;;0.16;94.61;101329.31;5045856;28;20585;-78
2021/03/18 08:46:47;;;;;;;43.57;27.80;;;;;;;0.29;94.26;101335.78;5050263;28;20205;-78
2021/03/18 08:49:25;;;;;;;51.20;29.70;;;;;;;0.25;93.94;101328.78;5046963;28;20648;-77
2021/03/18 08:51:53;;;;;;;47.00;27.60;;;;;;;0.08;93.74;101334.16;5050085;28;20645;-78
2021/03/18 08:54:52;;;;;;;39.57;25.80;;;;;;;0.32;93.34;101328.22;5046762;28;20209;-76
2021/03/18 08:57:27;;;;;;;30.53;23.43;;;;;;;0.49;93.18;101323.66;5045343;28;20202;-77
2021/03/18 08:59:54;;;;;;;34.63;23.73;;;;;;;0.26;92.67;101323.72;5049085;28;20231;-78
2021/03/18 09:02:28;;;;;;;36.47;24.83;;;;;;;0.23;92.32;101320.16;5046169;28;20209;-78
2021/03/18 09:04:55;;;;;;;33.80;23.70;;;;;;;0.22;92.53;101316.72;5047627;28;20327;-75
2021/03/18 09:07:23;;;;;;;39.13;25.03;;;;;;;0.30;92.88;101314.44;5044687;28;20194;-79
2021/03/18 09:10:04;;;;;;;51.73;26.77;;;;;;;0.46;92.95;101319.31;5057581;28;20230;-77
2021/03/18 09:12:41;;;;;;;39.87;24.87;;;;;;;0.71;92.37;101317.59;5068619;28;20568;-77
2021/03/18 09:15:22;;;;;;;32.43;23.47;;;;;;;0.67;92.68;101308.91;5044256;28;20586;-78
2021/03/18 09:17:52;;;;;;;28.93;22.77;;;;;;;0.78;92.33;101317.00;5052180;28;20260;-77
2021/03/18 09:20:21;;;;;;;29.73;23.20;;;;;;;1.08;92.60;101314.63;5055816;28;20637;-77
2021/03/18 09:22:47;;;;;;;24.20;21.43;;;;;;;1.16;91.41;101304.59;5070455;28;20193;-77
2021/03/18 09:25:14;;;;;;;23.03;19.27;;;;;;;1.23;90.48;101313.38;5061394;28;20204;-77
2021/03/18 09:27:43;;;;;;;25.97;21.97;;;;;;;1.51;89.94;101310.03;5069211;28;20667;-78
2021/03/18 09:30:25;;;;;;;22.20;18.67;;;;;;;1.49;89.07;101312.53;5058840;28;20730;-78
2021/03/18 09:32:52;;;;;;;22.80;17.10;;;;;;;1.14;87.99;101306.22;5070393;28;20204;-77
2021/03/18 09:35:20;;;;;;;23.20;20.10;;;;;;;1.25;88.84;101304.00;5060615;28;20235;-77
2021/03/18 09:37:47;;;;;;;22.80;19.00;;;;;;;1.30;88.84;101305.03;5051280;28;20216;-77
2021/03/18 09:40:14;;;;;;;23.07;20.67;;;;;;;1.33;88.67;101292.31;5045551;28;20710;-77
2021/03/18 09:42:41;;;;;;;21.83;19.53;;;;;;;1.13;88.95;101295.09;5054468;28;20206;-78
2021/03/18 09:45:09;;;;;;;25.00;19.77;;;;;;;1.19;89.84;101291.84;5059570;28;20557;-78
2021/03/18 09:47:35;;;;;;;24.60;19.93;;;;;;;1.33;88.94;101294.88;5068517;28;20201;-76
2021/03/18 09:50:04;;;;;;;21.57;19.37;;;;;;;1.15;88.74;101297.69;5062972;28;20228;-77
2021/03/18 09:52:30;;;;;;;25.77;19.17;;;;;;;1.16;89.38;101296.88;5067903;28;20289;-78
2021/03/18 09:54:57;;;;;;;22.97;19.17;;;;;;;1.24;88.95;101292.84;5061587;28;20653;-77
2021/03/18 09:57:27;;;;;;;21.60;19.37;;;;;;;1.43;89.48;101290.88;5067482;28;20201;-78
2021/03/18 09:59:53;;;;;;;25.57;19.90;;;;;;;1.49;89.61;101289.38;5065127;28;20228;-77
2021/03/18 10:02:25;;;;;;;20.33;18.20;;;;;;;1.23;88.70;101287.66;5066789;28;20213;-77
2021/03/18 10:04:51;;;;;;;25.17;20.43;;;;;;;1.49;88.86;101296.25;5065737;28;20204;-77
2021/03/18 10:07:18;;;;;;;22.83;19.03;;;;;;;1.33;88.01;101293.16;5054550;28;20541;-77
2021/03/18 10:09:45;;;;;;;20.03;17.97;;;;;;;1.51;88.16;101289.44;5039231;28;20709;-75
2021/03/18 10:12:13;;;;;;;20.33;18.23;;;;;;;1.56;88.25;101293.00;5057929;28;20238;-77
2021/03/18 10:14:41;;;;;;;19.57;17.57;;;;;;;1.68;87.52;101297.66;5059512;28;20411;-78
2021/03/18 10:17:10;;;;;;;20.90;18.77;;;;;;;1.93;87.61;101286.44;5065873;28;20287;-77
2021/03/18 10:19:39;;;;;;;19.53;17.63;;;;;;;1.73;86.67;101291.84;5065909;28;20225;-77
2021/03/18 10:22:06;;;;;;;18.20;16.37;;;;;;;1.68;86.87;101288.25;5065703;28;20209;-78
2021/03/18 10:24:34;;;;;;;20.60;18.47;;;;;;;1.69;86.55;101276.28;5046732;28;20280;-78
2021/03/18 10:27:07;;;;;;;19.10;17.27;;;;;;;2.00;87.62;101275.47;5043597;28;20209;-77
2021/03/18 10:29:34;;;;;;;18.80;16.83;;;;;;;2.04;86.46;101268.72;5056173;28;20231;-75
2021/03/18 10:32:07;;;;;;;18.87;16.93;;;;;;;2.25;85.59;101256.47;5056565;28;20217;-77
2021/03/18 10:34:33;;;;;;;23.63;19.27;;;;;;;2.39;85.99;101262.84;5069940;28;20216;-78
2021/03/18 10:36:59;;;;;;;18.47;16.67;;;;;;;2.27;85.18;101257.38;5057919;28;20570;-78
2021/03/18 10:39:25;;;;;;;19.17;17.27;;;;;;;1.97;85.67;101254.81;5054694;28;20222;-77
2021/03/18 10:41:53;;;;;;;18.57;16.80;;;;;;;1.87;85.35;101253.66;5068617;28;20253;-78
2021/03/18 10:44:21;;;;;;;19.60;17.50;;;;;;;1.89;85.55;101248.56;5068825;28;20208;-78
2021/03/18 10:46:48;;;;;;;18.33;16.00;;;;;;;1.91;85.78;101247.75;5067290;28;20212;-75
2021/03/18 10:49:15;;;;;;;22.07;18.93;;;;;;;2.05;86.30;101245.59;5067044;28;20235;-79
2021/03/18 10:51:43;;;;;;;18.20;16.40;;;;;;;1.95;84.80;101247.03;5066119;28;20676;-75
2021/03/18 10:54:17;;;;;;;18.33;16.57;;;;;;;2.25;84.63;101243.56;5055938;28;20193;-76
2021/03/18 10:56:43;;;;;;;19.10;17.30;;;;;;;2.39;83.29;101246.53;5066387;28;20192;-76
2021/03/18 10:59:17;;;;;;;18.33;16.67;;;;;;;2.69;84.35;101243.03;5066414;28;20221;-77
2021/03/18 11:01:43;;;;;;;17.70;15.80;;;;;;;2.49;83.54;101242.50;5065747;28;20212;-76
2021/03/18 11:04:10;;;;;;;19.23;17.33;;;;;;;2.45;84.44;101244.13;5067014;28;20587;-76
2021/03/18 11:06:46;;;;;;;18.20;16.30;;;;;;;2.51;83.89;101233.13;5057688;28;20256;-76
2021/03/18 11:09:12;;;;;;;18.10;16.33;;;;;;;2.45;84.24;101236.41;5054331;28;20707;-79
2021/03/18 11:11:38;;;;;;;21.37;19.27;;;;;;;2.43;84.80;101229.47;5066648;28;20236;-76
2021/03/18 11:14:05;;;;;;;19.03;17.23;;;;;;;2.38;84.30;101227.63;5066443;28;20204;-77
2021/03/18 11:16:32;;;;;;;21.30;18.17;;;;;;;2.45;83.86;101217.50;5067840;28;20742;-78
2021/03/18 11:18:59;;;;;;;18.03;16.33;;;;;;;2.42;83.13;101214.81;5069491;28;20641;-76
2021/03/18 11:21:27;;;;;;;20.53;18.43;;;;;;;2.25;83.67;101206.66;5065464;28;20221;-76